createdAt,value
2017-11-06T00:00:14.942Z,9.5
2017-11-06T00:01:00.339Z,9.5
2017-11-06T00:02:00.382Z,9.42
2017-11-06T00:03:00.393Z,9.5
2017-11-06T00:04:00.408Z,9.47
2017-11-06T00:05:00.438Z,9.47
2017-11-06T00:06:00.459Z,9.46
2017-11-06T00:07:00.140Z,9.4
2017-11-06T00:08:00.482Z,9.43
2017-11-06T00:09:00.515Z,9.46
2017-11-06T00:10:00.537Z,9.5
2017-11-06T00:11:14.818Z,9.46
2017-11-06T00:12:00.247Z,9.46
2017-11-06T00:13:00.596Z,9.47
2017-11-06T00:14:00.586Z,9.42
2017-11-06T00:15:00.301Z,9.46
2017-11-06T00:16:00.634Z,9.42
2017-11-06T00:17:00.327Z,9.42
2017-11-06T00:18:15.282Z,9.38
2017-11-06T00:19:00.704Z,9.35
2017-11-06T00:20:00.403Z,9.38
2017-11-06T00:21:00.727Z,9.4
2017-11-06T00:22:00.765Z,9.36
2017-11-06T00:23:00.439Z,9.38
2017-11-06T00:24:15.387Z,9.46
2017-11-06T00:25:00.808Z,9.48
2017-11-06T00:26:15.102Z,9.47
2017-11-06T00:27:15.440Z,9.36
2017-11-06T00:28:00.852Z,9.48
2017-11-06T00:29:00.898Z,9.42
2017-11-06T00:30:00.892Z,9.4
2017-11-06T00:31:00.921Z,9.39
2017-11-06T00:32:15.545Z,9.35
2017-11-06T00:33:00.649Z,9.32
2017-11-06T00:34:15.586Z,9.43
2017-11-06T00:35:00.980Z,9.4
2017-11-06T00:36:01.004Z,9.31
2017-11-06T00:37:00.710Z,9.31
2017-11-06T00:38:01.066Z,9.35
2017-11-06T00:39:01.072Z,9.39
2017-11-06T00:40:00.763Z,9.38
2017-11-06T00:41:01.092Z,9.33
2017-11-06T00:43:15.423Z,9.39
2017-11-06T00:44:01.170Z,9.39
2017-11-06T00:45:01.180Z,9.35
2017-11-06T00:46:01.203Z,9.38
2017-11-06T00:47:00.900Z,9.38
2017-11-06T00:48:00.918Z,9.38
2017-11-06T00:49:01.256Z,9.33
2017-11-06T00:50:15.891Z,9.38
2017-11-06T00:51:00.976Z,9.39
2017-11-06T00:52:01.328Z,9.42
2017-11-06T00:53:01.321Z,9.4
2017-11-06T00:54:01.028Z,9.33
2017-11-06T00:55:01.379Z,9.28
2017-11-06T00:56:01.389Z,9.29
2017-11-06T00:57:01.407Z,9.31
2017-11-06T00:58:01.426Z,9.29
2017-11-06T00:59:01.431Z,9.33
2017-11-06T01:00:01.470Z,9.38
2017-11-06T01:01:01.150Z,9.24
2017-11-06T01:02:01.754Z,9.31
2017-11-06T01:03:01.523Z,9.33
2017-11-06T01:04:01.548Z,9.33
2017-11-06T01:05:01.555Z,9.31
2017-11-06T01:06:16.183Z,9.31
2017-11-06T01:07:01.594Z,9.32
2017-11-06T01:08:01.605Z,9.42
2017-11-06T01:09:01.635Z,9.29
2017-11-06T01:10:01.329Z,9.24
2017-11-06T01:11:01.684Z,9.36
2017-11-06T01:12:01.688Z,9.29
2017-11-06T01:13:01.709Z,9.35
2017-11-06T01:14:01.416Z,9.35
2017-11-06T01:15:01.734Z,9.4
2017-11-06T01:16:01.758Z,9.28
2017-11-06T01:17:01.465Z,9.28
2017-11-06T01:18:01.793Z,9.26
2017-11-06T01:19:01.830Z,9.29
2017-11-06T01:20:01.840Z,9.24
2017-11-06T01:21:16.464Z,9.28
2017-11-06T01:23:01.885Z,9.29
2017-11-06T01:24:01.911Z,9.26
2017-11-06T01:25:01.935Z,9.29
2017-11-06T01:26:01.947Z,9.15
2017-11-06T01:27:01.971Z,9.13
2017-11-06T01:28:01.988Z,9.08
2017-11-06T01:29:02.002Z,9.2
2017-11-06T01:30:01.706Z,9.18
2017-11-06T01:31:02.048Z,9.17
2017-11-06T01:32:02.063Z,9.14
2017-11-06T01:33:16.705Z,9.23
2017-11-06T01:34:02.107Z,9.15
2017-11-06T01:35:02.113Z,9.23
2017-11-06T01:36:01.824Z,9.13
2017-11-06T01:37:02.171Z,9.14
2017-11-06T01:38:16.790Z,9.15
2017-11-06T01:39:02.185Z,9.21
2017-11-06T01:40:02.219Z,9.2
2017-11-06T01:41:02.237Z,9.13
2017-11-06T01:42:02.246Z,9.17
2017-11-06T01:43:02.273Z,9.15
2017-11-06T01:44:02.292Z,9.01
2017-11-06T01:45:16.591Z,9.02
2017-11-06T01:46:02.316Z,9.08
2017-11-06T01:47:16.950Z,9.02
2017-11-06T01:48:02.376Z,8.95
2017-11-06T01:49:02.389Z,8.98
2017-11-06T01:50:02.080Z,8.89
2017-11-06T01:54:02.481Z,9.01
2017-11-06T01:56:02.514Z,8.98
2017-11-06T01:57:02.547Z,8.95
2017-11-06T01:58:02.566Z,8.89
2017-11-06T01:59:02.581Z,8.95
2017-11-06T02:00:02.274Z,8.98
2017-11-06T02:01:02.630Z,9.08
2017-11-06T02:02:02.635Z,8.96
2017-11-06T02:03:02.663Z,8.96
2017-11-06T02:04:02.344Z,8.92
2017-11-06T02:05:02.725Z,9.04
2017-11-06T02:07:02.727Z,8.98
2017-11-06T02:08:02.737Z,9.13
2017-11-06T02:09:17.358Z,8.96
2017-11-06T02:10:02.781Z,9.01
2017-11-06T02:11:02.792Z,8.94
2017-11-06T02:12:02.841Z,8.87
2017-11-06T02:13:02.838Z,8.89
2017-11-06T02:14:02.532Z,8.86
2017-11-06T02:15:02.545Z,8.81
2017-11-06T02:16:02.898Z,8.89
2017-11-06T02:17:17.524Z,8.87
2017-11-06T02:18:02.933Z,8.98
2017-11-06T02:19:02.958Z,8.92
2017-11-06T02:20:02.636Z,8.92
2017-11-06T02:21:02.985Z,8.98
2017-11-06T02:22:17.617Z,8.86
2017-11-06T02:23:03.025Z,9.02
2017-11-06T02:24:02.735Z,8.98
2017-11-06T02:26:03.076Z,8.87
2017-11-06T02:27:03.137Z,8.87
2017-11-06T02:29:03.134Z,8.92
2017-11-06T02:30:03.138Z,8.8
2017-11-06T02:31:03.169Z,8.83
2017-11-06T02:32:03.199Z,8.79
2017-11-06T02:33:03.213Z,8.79
2017-11-06T02:34:03.232Z,8.89
2017-11-06T02:35:03.254Z,8.77
2017-11-06T02:36:03.249Z,8.86
2017-11-06T02:37:03.303Z,8.89
2017-11-06T02:38:02.649Z,8.91
2017-11-06T02:39:03.321Z,8.83
2017-11-06T02:40:03.336Z,8.94
2017-11-06T02:41:17.638Z,8.81
2017-11-06T02:42:03.388Z,8.84
2017-11-06T02:44:03.415Z,8.83
2017-11-06T02:45:03.154Z,8.91
2017-11-06T02:46:03.458Z,8.86
2017-11-06T02:47:03.469Z,8.92
2017-11-06T02:48:03.492Z,8.91
2017-11-06T02:49:03.178Z,8.89
2017-11-06T02:50:03.543Z,8.87
2017-11-06T02:51:03.539Z,8.84
2017-11-06T02:52:03.564Z,8.79
2017-11-06T02:53:03.581Z,8.83
2017-11-06T02:54:03.590Z,8.89
2017-11-06T02:56:18.239Z,8.83
2017-11-06T02:57:03.342Z,8.77
2017-11-06T02:58:03.700Z,8.7
2017-11-06T02:59:03.682Z,8.62
2017-11-06T03:00:03.721Z,8.63
2017-11-06T03:01:03.733Z,8.59
2017-11-06T03:02:03.762Z,8.59
2017-11-06T03:03:03.768Z,8.7
2017-11-06T03:04:03.788Z,8.68
2017-11-06T03:05:03.492Z,8.58
2017-11-06T03:06:03.822Z,8.61
2017-11-06T03:07:03.849Z,8.63
2017-11-06T03:08:03.534Z,8.68
2017-11-06T03:09:03.877Z,8.7
2017-11-06T03:10:03.914Z,8.65
2017-11-06T03:11:03.918Z,8.7
2017-11-06T03:12:03.934Z,8.65
2017-11-06T03:13:03.626Z,8.55
2017-11-06T03:14:03.957Z,8.5
2017-11-06T03:15:03.993Z,8.53
2017-11-06T03:16:04.009Z,8.55
2017-11-06T03:17:04.035Z,8.61
2017-11-06T03:18:03.717Z,8.5
2017-11-06T03:19:04.058Z,8.53
2017-11-06T03:20:18.362Z,8.63
2017-11-06T03:21:04.108Z,8.63
2017-11-06T03:22:04.128Z,8.52
2017-11-06T03:23:03.808Z,8.47
2017-11-06T03:24:04.166Z,8.55
2017-11-06T03:25:03.855Z,8.52
2017-11-06T03:27:04.218Z,8.44
2017-11-06T03:29:03.932Z,8.53
2017-11-06T03:30:04.278Z,8.52
2017-11-06T03:31:03.972Z,8.58
2017-11-06T03:32:04.311Z,8.58
2017-11-06T03:33:03.993Z,8.56
2017-11-06T03:34:04.341Z,8.59
2017-11-06T03:35:04.369Z,8.59
2017-11-06T03:36:04.382Z,8.56
2017-11-06T03:37:04.389Z,8.61
2017-11-06T03:38:04.424Z,8.65
2017-11-06T03:39:04.452Z,8.53
2017-11-06T03:42:04.482Z,8.52
2017-11-06T03:43:03.864Z,8.48
2017-11-06T03:44:19.136Z,8.5
2017-11-06T03:45:04.541Z,8.48
2017-11-06T03:46:04.577Z,8.47
2017-11-06T03:47:04.600Z,8.45
2017-11-06T03:48:04.601Z,8.43
2017-11-06T03:49:04.611Z,8.44
2017-11-06T03:50:04.639Z,8.44
2017-11-06T03:51:04.640Z,8.47
2017-11-06T03:52:04.343Z,8.47
2017-11-06T03:53:04.686Z,8.47
2017-11-06T03:54:04.723Z,8.53
2017-11-06T03:55:04.726Z,8.43
2017-11-06T03:56:04.747Z,8.5
2017-11-06T03:57:04.448Z,8.47
2017-11-06T03:58:04.141Z,8.48
2017-11-06T03:59:04.797Z,8.53
2017-11-06T04:00:19.422Z,8.56
2017-11-06T04:01:04.848Z,8.53
2017-11-06T04:02:04.539Z,8.47
2017-11-06T04:03:04.876Z,8.44
2017-11-06T04:04:04.907Z,8.43
2017-11-06T04:05:04.910Z,8.53
2017-11-06T04:06:04.931Z,8.5
2017-11-06T04:07:04.964Z,8.52
2017-11-06T04:08:19.568Z,8.52
2017-11-06T04:09:05.000Z,8.44
2017-11-06T04:10:04.682Z,8.38
2017-11-06T04:11:05.023Z,8.56
2017-11-06T04:12:04.726Z,8.58
2017-11-06T04:15:04.773Z,8.4
2017-11-06T04:16:19.725Z,8.41
2017-11-06T04:18:05.155Z,8.41
2017-11-06T04:19:05.185Z,8.43
2017-11-06T04:20:05.223Z,8.38
2017-11-06T04:21:05.226Z,8.41
2017-11-06T04:22:04.904Z,8.37
2017-11-06T04:23:05.241Z,8.5
2017-11-06T04:24:05.261Z,8.38
2017-11-06T04:25:05.292Z,8.48
2017-11-06T04:26:05.310Z,8.44
2017-11-06T04:27:05.308Z,8.44
2017-11-06T04:29:05.355Z,8.44
2017-11-06T04:30:19.999Z,8.36
2017-11-06T04:32:05.410Z,8.38
2017-11-06T04:33:05.440Z,8.4
2017-11-06T04:34:05.437Z,8.4
2017-11-06T04:35:05.146Z,8.43
2017-11-06T04:36:05.499Z,8.38
2017-11-06T04:37:05.182Z,8.37
2017-11-06T04:38:05.198Z,8.4
2017-11-06T04:39:05.551Z,8.41
2017-11-06T04:40:05.569Z,8.4
2017-11-06T04:41:05.581Z,8.41
2017-11-06T04:42:05.612Z,8.44
2017-11-06T04:43:05.621Z,8.41
2017-11-06T04:44:05.639Z,8.33
2017-11-06T04:45:05.330Z,8.4
2017-11-06T04:46:05.672Z,8.43
2017-11-06T04:47:05.703Z,8.36
2017-11-06T04:48:05.696Z,8.33
2017-11-06T04:49:05.730Z,8.37
2017-11-06T04:50:05.766Z,8.33
2017-11-06T04:51:05.764Z,8.36
2017-11-06T04:53:20.398Z,8.36
2017-11-06T04:54:05.825Z,8.41
2017-11-06T04:55:05.834Z,8.36
2017-11-06T04:56:05.526Z,8.43
2017-11-06T04:57:05.861Z,8.41
2017-11-06T04:58:05.898Z,8.43
2017-11-06T04:59:05.908Z,8.25
2017-11-06T05:00:05.918Z,8.28
2017-11-06T05:01:05.961Z,8.37
2017-11-06T05:02:05.974Z,8.29
2017-11-06T05:03:20.588Z,8.26
2017-11-06T05:04:06.013Z,8.22
2017-11-06T05:05:06.007Z,8.2
2017-11-06T05:07:05.740Z,8.2
2017-11-06T05:08:06.078Z,8.23
2017-11-06T05:09:06.094Z,8.25
2017-11-06T05:10:05.791Z,8.23
2017-11-06T05:11:06.145Z,8.19
2017-11-06T05:12:05.817Z,8.25
2017-11-06T05:13:06.161Z,8.18
2017-11-06T05:14:06.178Z,8.18
2017-11-06T05:15:06.187Z,8.12
2017-11-06T05:16:06.222Z,8.07
2017-11-06T05:17:06.245Z,8.08
2017-11-06T05:18:06.252Z,8.05
2017-11-06T05:19:20.870Z,8.08
2017-11-06T05:20:06.307Z,8.12
2017-11-06T05:21:06.306Z,8.07
2017-11-06T05:22:06.344Z,8.08
2017-11-06T05:23:06.340Z,8.15
2017-11-06T05:24:06.351Z,8.12
2017-11-06T05:25:20.985Z,8.18
2017-11-06T05:26:21.003Z,8.11
2017-11-06T05:27:06.436Z,8.12
2017-11-06T05:28:06.434Z,8.12
2017-11-06T05:29:06.465Z,8.11
2017-11-06T05:30:06.487Z,8.1
2017-11-06T05:31:06.184Z,8.04
2017-11-06T05:32:21.120Z,8.01
2017-11-06T05:33:05.885Z,8.07
2017-11-06T05:34:06.216Z,8.08
2017-11-06T05:35:21.161Z,8.12
2017-11-06T05:36:05.941Z,8.12
2017-11-06T05:37:06.288Z,8.04
2017-11-06T05:38:06.284Z,8.08
2017-11-06T05:39:06.620Z,8.01
2017-11-06T05:40:06.675Z,7.97
2017-11-06T05:41:06.674Z,8
2017-11-06T05:42:06.037Z,8.01
2017-11-06T05:43:06.710Z,8.04
2017-11-06T05:44:06.409Z,8
2017-11-06T05:45:06.432Z,7.9
2017-11-06T05:46:06.117Z,7.93
2017-11-06T05:47:06.138Z,7.93
2017-11-06T05:48:06.473Z,8.07
2017-11-06T05:49:06.496Z,7.97
2017-11-06T05:50:06.845Z,8.07
2017-11-06T05:51:21.465Z,7.95
2017-11-06T05:52:06.870Z,7.93
2017-11-06T05:53:06.897Z,7.95
2017-11-06T05:54:06.578Z,8.02
2017-11-06T05:55:06.940Z,8.04
2017-11-06T05:56:06.938Z,8.01
2017-11-06T05:57:06.947Z,8.01
2017-11-06T05:58:06.974Z,7.82
2017-11-06T05:59:06.996Z,7.83
2017-11-06T06:00:07.017Z,7.92
2017-11-06T06:01:07.039Z,7.82
2017-11-06T06:03:07.086Z,7.75
2017-11-06T06:04:07.090Z,7.79
2017-11-06T06:05:07.133Z,7.82
2017-11-06T06:06:21.732Z,7.77
2017-11-06T06:07:07.141Z,7.68
2017-11-06T06:08:07.190Z,7.69
2017-11-06T06:09:07.183Z,7.72
2017-11-06T06:10:07.208Z,7.61
2017-11-06T06:11:06.893Z,7.75
2017-11-06T06:12:07.232Z,7.63
2017-11-06T06:13:07.266Z,7.79
2017-11-06T06:14:07.277Z,7.63
2017-11-06T06:15:07.333Z,7.57
2017-11-06T06:16:06.988Z,7.74
2017-11-06T06:17:06.993Z,7.58
2017-11-06T06:18:07.348Z,7.69
2017-11-06T06:19:07.360Z,7.72
2017-11-06T06:21:07.085Z,7.71
2017-11-06T06:23:07.436Z,7.69
2017-11-06T06:24:07.458Z,7.69
2017-11-06T06:25:07.483Z,7.58
2017-11-06T06:26:07.169Z,7.68
2017-11-06T06:27:07.514Z,7.58
2017-11-06T06:28:07.227Z,7.63
2017-11-06T06:29:07.534Z,7.61
2017-11-06T06:30:07.901Z,7.61
2017-11-06T06:32:07.581Z,7.68
2017-11-06T06:33:07.608Z,7.57
2017-11-06T06:34:07.634Z,7.53
2017-11-06T06:35:07.326Z,7.5
2017-11-06T06:36:07.347Z,7.5
2017-11-06T06:38:22.311Z,7.57
2017-11-06T06:39:07.717Z,7.43
2017-11-06T06:40:22.023Z,7.48
2017-11-06T06:41:07.752Z,7.58
2017-11-06T06:42:07.779Z,7.49
2017-11-06T06:43:07.779Z,7.58
2017-11-06T06:44:07.500Z,7.48
2017-11-06T06:45:22.429Z,7.5
2017-11-06T06:46:07.202Z,7.57
2017-11-06T06:48:07.881Z,7.5
2017-11-06T06:49:07.900Z,7.48
2017-11-06T06:50:07.592Z,7.61
2017-11-06T06:51:07.611Z,7.58
2017-11-06T06:52:07.647Z,7.63
2017-11-06T06:53:07.647Z,7.68
2017-11-06T06:56:22.313Z,7.68
2017-11-06T06:57:08.040Z,7.69
2017-11-06T06:58:08.060Z,7.64
2017-11-06T06:59:08.064Z,7.57
2017-11-06T07:00:08.103Z,7.67
2017-11-06T07:01:08.122Z,7.68
2017-11-06T07:02:07.824Z,7.68
2017-11-06T07:03:08.160Z,7.63
2017-11-06T07:04:08.174Z,7.79
2017-11-06T07:05:08.190Z,7.55
2017-11-06T07:06:08.194Z,7.61
2017-11-06T07:07:07.890Z,7.61
2017-11-06T07:08:07.929Z,7.61
2017-11-06T07:10:22.890Z,7.67
2017-11-06T07:11:08.301Z,7.6
2017-11-06T07:12:08.309Z,7.72
2017-11-06T07:13:08.022Z,7.63
2017-11-06T07:14:08.361Z,7.71
2017-11-06T07:15:08.369Z,7.64
2017-11-06T07:16:08.392Z,7.61
2017-11-06T07:17:08.090Z,7.67
2017-11-06T07:18:08.446Z,7.61
2017-11-06T07:19:08.437Z,7.64
2017-11-06T07:20:08.143Z,7.77
2017-11-06T07:21:08.148Z,7.82
2017-11-06T07:22:08.491Z,7.77
2017-11-06T07:23:08.542Z,7.82
2017-11-06T07:24:08.880Z,7.86
2017-11-06T07:25:08.556Z,7.95
2017-11-06T07:26:23.179Z,7.89
2017-11-06T07:28:08.604Z,8.04
2017-11-06T07:29:23.239Z,8.01
2017-11-06T07:30:08.651Z,7.95
2017-11-06T07:31:08.327Z,8.04
2017-11-06T07:32:08.676Z,8.08
2017-11-06T07:33:08.694Z,8.04
2017-11-06T07:34:23.311Z,8.08
2017-11-06T07:35:08.403Z,8.07
2017-11-06T07:36:08.417Z,8.07
2017-11-06T07:37:08.762Z,8.04
2017-11-06T07:38:08.797Z,8.01
2017-11-06T07:39:08.800Z,8.04
2017-11-06T07:40:08.817Z,8.04
2017-11-06T07:41:23.467Z,8.19
2017-11-06T07:42:08.852Z,8.22
2017-11-06T07:43:08.887Z,8.15
2017-11-06T07:44:08.573Z,8.23
2017-11-06T07:45:08.921Z,8.25
2017-11-06T07:46:08.292Z,8.19
2017-11-06T07:47:08.625Z,8.22
2017-11-06T07:48:08.652Z,8.2
2017-11-06T07:49:08.995Z,8.23
2017-11-06T07:51:08.690Z,8.28
2017-11-06T07:52:09.034Z,8.16
2017-11-06T07:53:08.739Z,8.18
2017-11-06T07:54:08.762Z,7.98
2017-11-06T07:55:09.100Z,8.11
2017-11-06T07:56:09.123Z,8.12
2017-11-06T07:57:09.158Z,8.16
2017-11-06T07:58:08.820Z,8.16
2017-11-06T07:59:09.179Z,8.2
2017-11-06T08:00:09.189Z,8.23
2017-11-06T08:01:08.887Z,8.23
2017-11-06T08:02:09.220Z,8.36
2017-11-06T08:03:08.912Z,8.29
2017-11-06T08:04:09.269Z,8.33
2017-11-06T08:05:23.559Z,8.45
2017-11-06T08:06:08.984Z,8.56
2017-11-06T08:07:09.322Z,8.44
2017-11-06T08:08:09.340Z,8.4
2017-11-06T08:09:09.353Z,8.37
2017-11-06T08:10:09.364Z,8.36
2017-11-06T08:11:09.067Z,8.36
2017-11-06T08:12:09.082Z,8.44
2017-11-06T08:13:24.043Z,8.4
2017-11-06T08:14:09.442Z,8.48
2017-11-06T08:15:09.472Z,8.37
2017-11-06T08:16:23.771Z,8.43
2017-11-06T08:17:09.496Z,8.3
2017-11-06T08:18:09.524Z,8.4
2017-11-06T08:19:09.542Z,8.37
2017-11-06T08:20:09.245Z,8.34
2017-11-06T08:22:09.950Z,8.22
2017-11-06T08:23:09.628Z,8.2
2017-11-06T08:24:24.246Z,8.2
2017-11-06T08:25:09.323Z,8.28
2017-11-06T08:26:09.660Z,8.23
2017-11-06T08:27:09.692Z,8.28
2017-11-06T08:28:09.714Z,8.28
2017-11-06T08:29:24.329Z,8.23
2017-11-06T08:30:09.740Z,8.23
2017-11-06T08:31:24.373Z,8.41
2017-11-06T08:32:09.772Z,8.45
2017-11-06T08:33:09.487Z,8.4
2017-11-06T08:34:09.505Z,8.44
2017-11-06T08:35:09.839Z,8.43
2017-11-06T08:36:09.859Z,8.44
2017-11-06T08:37:09.875Z,8.43
2017-11-06T08:38:09.573Z,8.34
2017-11-06T08:39:09.898Z,8.45
2017-11-06T08:40:09.602Z,8.52
2017-11-06T08:41:09.967Z,8.44
2017-11-06T08:42:10.316Z,8.43
2017-11-06T08:43:09.978Z,8.48
2017-11-06T08:44:09.995Z,8.44
2017-11-06T08:45:24.632Z,8.55
2017-11-06T08:46:10.049Z,8.5
2017-11-06T08:47:10.074Z,8.44
2017-11-06T08:48:10.096Z,8.5
2017-11-06T08:49:09.783Z,8.56
2017-11-06T08:50:10.123Z,8.53
2017-11-06T08:51:10.153Z,8.58
2017-11-06T08:52:09.835Z,8.76
2017-11-06T08:53:10.175Z,8.84
2017-11-06T08:54:10.200Z,8.87
2017-11-06T08:55:10.225Z,8.98
2017-11-06T08:56:10.240Z,9.05
2017-11-06T08:58:10.273Z,9.17
2017-11-06T08:59:10.287Z,9.18
2017-11-06T09:00:10.315Z,9.26
2017-11-06T09:01:24.939Z,9.36
2017-11-06T09:02:09.703Z,9.42
2017-11-06T09:03:10.039Z,9.42
2017-11-06T09:04:10.392Z,9.39
2017-11-06T09:05:10.080Z,9.42
2017-11-06T09:06:10.090Z,9.2
2017-11-06T09:07:10.448Z,9.26
2017-11-06T09:08:10.138Z,9.31
2017-11-06T09:09:10.488Z,9.23
2017-11-06T09:10:10.511Z,9.32
2017-11-06T09:11:10.514Z,9.28
2017-11-06T09:12:10.535Z,9.35
2017-11-06T09:13:10.230Z,9.39
2017-11-06T09:14:10.562Z,9.14
2017-11-06T09:15:10.590Z,9.11
2017-11-06T09:17:10.321Z,9.23
2017-11-06T09:18:10.329Z,9.28
2017-11-06T09:20:25.292Z,9.24
2017-11-06T09:21:10.377Z,9.02
2017-11-06T09:22:10.723Z,9.14
2017-11-06T09:23:10.755Z,9.17
2017-11-06T09:24:10.762Z,9.14
2017-11-06T09:25:10.786Z,9.11
2017-11-06T09:26:10.801Z,9.18
2017-11-06T09:27:10.819Z,9.23
2017-11-06T09:28:10.829Z,9.23
2017-11-06T09:29:10.850Z,9.28
2017-11-06T09:30:10.563Z,9.26
2017-11-06T09:31:10.890Z,9.31
2017-11-06T09:32:10.923Z,9.18
2017-11-06T09:33:10.603Z,9.26
2017-11-06T09:34:10.952Z,9.24
2017-11-06T09:35:10.988Z,9.2
2017-11-06T09:36:10.661Z,9.28
2017-11-06T09:37:11.015Z,9.35
2017-11-06T09:38:10.722Z,9.33
2017-11-06T09:39:11.062Z,9.28
2017-11-06T09:40:10.747Z,9.33
2017-11-06T09:41:11.097Z,9.36
2017-11-06T09:43:10.805Z,9.47
2017-11-06T09:44:11.162Z,9.4
2017-11-06T09:45:11.164Z,9.47
2017-11-06T09:46:11.189Z,9.61
2017-11-06T09:47:10.559Z,9.6
2017-11-06T09:48:25.833Z,9.66
2017-11-06T09:49:11.248Z,9.68
2017-11-06T09:50:11.297Z,9.86
2017-11-06T09:51:10.956Z,9.93
2017-11-06T09:52:11.329Z,9.93
2017-11-06T09:53:11.314Z,9.78
2017-11-06T09:54:11.357Z,9.75
2017-11-06T09:55:11.352Z,9.94
2017-11-06T09:56:10.742Z,10.02
2017-11-06T09:57:11.414Z,10.01
2017-11-06T09:58:11.416Z,10.12
2017-11-06T09:59:11.455Z,10.17
2017-11-06T10:00:11.464Z,10.18
2017-11-06T10:01:11.467Z,10.27
2017-11-06T10:02:11.509Z,10.25
2017-11-06T10:03:11.532Z,10.25
2017-11-06T10:06:11.559Z,10.3
2017-11-06T10:07:11.606Z,10.3
2017-11-06T10:08:11.636Z,10.32
2017-11-06T10:09:11.640Z,10.34
2017-11-06T10:10:11.647Z,10.38
2017-11-06T10:11:11.664Z,10.53
2017-11-06T10:12:26.289Z,10.47
2017-11-06T10:13:11.385Z,10.32
2017-11-06T10:14:11.732Z,10.2
2017-11-06T10:15:11.754Z,10.02
2017-11-06T10:17:11.796Z,10.17
2017-11-06T10:18:11.817Z,10.3
2017-11-06T10:19:11.848Z,10.23
2017-11-06T10:20:26.451Z,10.25
2017-11-06T10:21:12.193Z,10.14
2017-11-06T10:22:11.578Z,10.05
2017-11-06T10:24:11.932Z,10.02
2017-11-06T10:25:26.558Z,10.02
2017-11-06T10:26:11.654Z,9.99
2017-11-06T10:27:11.992Z,10.07
2017-11-06T10:28:12.002Z,10.22
2017-11-06T10:29:12.028Z,10.22
2017-11-06T10:30:11.729Z,10.18
2017-11-06T10:31:11.760Z,10.2
2017-11-06T10:32:12.095Z,10.2
2017-11-06T10:34:12.134Z,10.09
2017-11-06T10:35:12.171Z,9.97
2017-11-06T10:36:26.765Z,9.9
2017-11-06T10:37:26.791Z,9.76
2017-11-06T10:38:12.214Z,9.84
2017-11-06T10:39:12.214Z,9.84
2017-11-06T10:40:12.241Z,10.02
2017-11-06T10:41:12.270Z,10.02
2017-11-06T10:42:12.288Z,9.87
2017-11-06T10:43:12.305Z,9.84
2017-11-06T10:44:12.325Z,9.69
2017-11-06T10:45:12.347Z,9.74
2017-11-06T10:46:12.364Z,9.68
2017-11-06T10:47:12.371Z,9.68
2017-11-06T10:48:12.414Z,9.69
2017-11-06T10:49:12.418Z,9.58
2017-11-06T10:50:12.601Z,9.46
2017-11-06T10:51:27.076Z,9.38
2017-11-06T10:52:12.485Z,9.5
2017-11-06T10:53:12.186Z,9.43
2017-11-06T10:54:12.511Z,9.46
2017-11-06T10:55:12.229Z,9.51
2017-11-06T10:56:12.576Z,9.38
2017-11-06T10:57:12.578Z,9.4
2017-11-06T10:58:12.286Z,9.5
2017-11-06T10:59:12.619Z,9.47
2017-11-06T11:00:12.643Z,9.47
2017-11-06T11:01:12.658Z,9.51
2017-11-06T11:02:12.670Z,9.42
2017-11-06T11:03:27.309Z,9.5
2017-11-06T11:04:12.405Z,9.36
2017-11-06T11:05:12.409Z,9.39
2017-11-06T11:06:12.758Z,9.31
2017-11-06T11:07:12.453Z,9.35
2017-11-06T11:08:12.489Z,9.48
2017-11-06T11:09:12.833Z,9.46
2017-11-06T11:10:12.834Z,9.47
2017-11-06T11:11:12.861Z,9.56
2017-11-06T11:12:12.556Z,9.64
2017-11-06T11:13:12.885Z,9.61
2017-11-06T11:14:12.920Z,9.58
2017-11-06T11:15:12.929Z,9.57
2017-11-06T11:16:12.624Z,9.69
2017-11-06T11:17:12.966Z,9.72
2017-11-06T11:18:13.003Z,9.78
2017-11-06T11:19:13.009Z,9.84
2017-11-06T11:20:13.019Z,9.68
2017-11-06T11:21:13.053Z,9.66
2017-11-06T11:22:13.067Z,9.65
2017-11-06T11:23:27.699Z,9.65
2017-11-06T11:24:13.110Z,9.78
2017-11-06T11:25:13.124Z,9.79
2017-11-06T11:27:12.846Z,9.81
2017-11-06T11:28:13.199Z,9.83
2017-11-06T11:29:13.215Z,9.83
2017-11-06T11:30:13.227Z,9.87
2017-11-06T11:31:13.251Z,9.97
2017-11-06T11:32:13.277Z,9.89
2017-11-06T11:33:13.279Z,9.89
2017-11-06T11:34:13.296Z,9.9
2017-11-06T11:35:13.339Z,9.89
2017-11-06T11:36:13.336Z,9.97
2017-11-06T11:37:13.026Z,10.04
2017-11-06T11:38:13.404Z,10.04
2017-11-06T11:39:28.014Z,10.09
2017-11-06T11:40:13.412Z,10.12
2017-11-06T11:41:13.112Z,10.22
2017-11-06T11:42:13.149Z,10.18
2017-11-06T11:43:13.151Z,10.27
2017-11-06T11:44:13.177Z,10.26
2017-11-06T11:45:13.526Z,10.27
2017-11-06T11:46:13.551Z,10.34
2017-11-06T11:47:13.239Z,10.25
2017-11-06T11:48:13.263Z,10.3
2017-11-06T11:49:13.613Z,10.23
2017-11-06T11:50:13.634Z,10.3
2017-11-06T11:51:13.634Z,10.29
2017-11-06T11:52:13.350Z,10.18
2017-11-06T11:53:13.664Z,10.29
2017-11-06T11:54:13.046Z,10.23
2017-11-06T11:55:28.315Z,10.41
2017-11-06T11:56:13.724Z,10.3
2017-11-06T11:57:28.716Z,10.27
2017-11-06T11:58:13.776Z,10.27
2017-11-06T11:59:13.781Z,10.22
2017-11-06T12:00:13.175Z,10.27
2017-11-06T12:03:13.870Z,10.36
2017-11-06T12:04:13.885Z,10.32
2017-11-06T12:05:28.512Z,10.33
2017-11-06T12:06:13.919Z,10.44
2017-11-06T12:07:13.954Z,10.32
2017-11-06T12:08:13.980Z,10.36
2017-11-06T12:09:14.001Z,10.33
2017-11-06T12:10:14.020Z,10.36
2017-11-06T12:11:28.633Z,10.36
2017-11-06T12:12:14.049Z,10.26
2017-11-06T12:13:14.065Z,10.33
2017-11-06T12:14:14.079Z,10.3
2017-11-06T12:15:13.793Z,10.25
2017-11-06T12:16:13.806Z,10.22
2017-11-06T12:17:14.135Z,10.29
2017-11-06T12:18:14.175Z,10.23
2017-11-06T12:19:14.190Z,10.29
2017-11-06T12:20:14.216Z,10.2
2017-11-06T12:22:13.916Z,10.29
2017-11-06T12:23:14.270Z,10.33
2017-11-06T12:24:14.303Z,10.33
2017-11-06T12:27:14.343Z,10.48
2017-11-06T12:28:14.363Z,10.48
2017-11-06T12:29:14.375Z,10.38
2017-11-06T12:30:14.085Z,10.32
2017-11-06T12:31:14.102Z,10.33
2017-11-06T12:32:14.469Z,10.33
2017-11-06T12:33:14.456Z,10.38
2017-11-06T12:34:14.485Z,10.36
2017-11-06T12:35:14.493Z,10.52
2017-11-06T12:36:14.516Z,10.34
2017-11-06T12:37:14.542Z,10.36
2017-11-06T12:38:14.564Z,10.25
2017-11-06T12:39:14.585Z,10.42
2017-11-06T12:40:14.614Z,10.45
2017-11-06T12:41:29.236Z,10.41
2017-11-06T12:42:14.000Z,10.25
2017-11-06T12:43:29.271Z,10.29
2017-11-06T12:44:14.684Z,10.25
2017-11-06T12:45:14.704Z,10.3
2017-11-06T12:46:14.715Z,10.42
2017-11-06T12:47:14.745Z,10.41
2017-11-06T12:48:14.769Z,10.38
2017-11-06T12:49:14.782Z,10.47
2017-11-06T12:50:14.486Z,10.51
2017-11-06T12:51:14.487Z,10.38
2017-11-06T12:52:14.839Z,10.51
2017-11-06T12:53:14.848Z,10.45
2017-11-06T12:54:14.881Z,10.48
2017-11-06T12:55:14.885Z,10.48
2017-11-06T12:56:14.925Z,10.52
2017-11-06T12:57:14.942Z,10.41
2017-11-06T12:58:29.570Z,10.52
2017-11-06T13:00:14.998Z,10.51
2017-11-06T13:01:15.026Z,10.61
2017-11-06T13:02:15.042Z,10.63
2017-11-06T13:03:14.432Z,10.64
2017-11-06T13:04:15.081Z,10.66
2017-11-06T13:05:15.100Z,10.61
2017-11-06T13:06:15.113Z,10.53
2017-11-06T13:08:15.153Z,10.51
2017-11-06T13:09:15.191Z,10.45
2017-11-06T13:10:15.209Z,10.36
2017-11-06T13:11:14.884Z,10.48
2017-11-06T13:12:14.580Z,10.47
2017-11-06T13:13:14.937Z,10.51
2017-11-06T13:14:29.564Z,10.47
2017-11-06T13:16:15.308Z,10.52
2017-11-06T13:17:15.346Z,10.47
2017-11-06T13:19:15.369Z,10.48
2017-11-06T13:20:15.081Z,10.66
2017-11-06T13:22:15.462Z,10.66
2017-11-06T13:23:15.445Z,10.68
2017-11-06T13:24:15.477Z,10.64
2017-11-06T13:25:15.497Z,10.63
2017-11-06T13:26:15.513Z,10.59
2017-11-06T13:27:15.554Z,10.56
2017-11-06T13:28:15.541Z,10.47
2017-11-06T13:29:15.570Z,10.51
2017-11-06T13:30:30.207Z,10.53
2017-11-06T13:31:15.296Z,10.6
2017-11-06T13:32:15.647Z,10.53
2017-11-06T13:33:15.341Z,10.52
2017-11-06T13:34:15.654Z,10.52
2017-11-06T13:35:15.688Z,10.4
2017-11-06T13:36:15.708Z,10.42
2017-11-06T13:37:15.723Z,10.47
2017-11-06T13:38:15.743Z,10.42
2017-11-06T13:39:15.130Z,10.36
2017-11-06T13:40:15.472Z,10.45
2017-11-06T13:41:15.806Z,10.51
2017-11-06T13:42:15.850Z,10.53
2017-11-06T13:43:15.863Z,10.42
2017-11-06T13:44:15.870Z,10.51
2017-11-06T13:45:15.888Z,10.47
2017-11-06T13:46:30.509Z,10.42
2017-11-06T13:47:15.928Z,10.38
2017-11-06T13:48:16.164Z,10.41
2017-11-06T13:49:15.976Z,10.3
2017-11-06T13:50:15.977Z,10.4
2017-11-06T13:51:15.694Z,10.3
2017-11-06T13:52:15.706Z,10.25
2017-11-06T13:53:16.032Z,10.29
2017-11-06T13:54:16.071Z,10.26
2017-11-06T13:55:16.085Z,10.26
2017-11-06T13:56:16.119Z,10.3
2017-11-06T13:57:16.128Z,10.36
2017-11-06T13:58:15.829Z,10.25
2017-11-06T13:59:16.170Z,10.22
2017-11-06T14:00:16.177Z,10.25
2017-11-06T14:01:30.822Z,10.32
2017-11-06T14:02:16.224Z,10.36
2017-11-06T14:03:16.254Z,10.29
2017-11-06T14:04:16.267Z,10.33
2017-11-06T14:05:16.282Z,10.38
2017-11-06T14:07:16.313Z,10.36
2017-11-06T14:08:16.343Z,10.29
2017-11-06T14:09:16.377Z,10.27
2017-11-06T14:10:15.738Z,10.23